Back to Top

Language: 

My Weather Underground Personal Weather Station Historical Data with Graphs...

Delerius Weather Station Historical Data
Daily Summary for December 19, 2017 Units:  Metric    English   Both
« Previous Day
Next Day »
Daily Weekly Monthly Yearly Custom
  High: Low: Average:
Temperature: 11 °C 1.3 °C 5.9 °C
Dew Point: 8 °C 0.6 °C 4.8 °C
Humidity: 97 % 78 % 93 %
Wind Speed: 14.5 km/h 0 km/h 2.3 km/h
Wind Gust: 24.1 km/h - -
Wind:- - WSW
Pressure: 1033.1 hPa 1031.4 hPa -
Precipitation: 0 mm    
Historical Graphs
 
 
Tabular Data for December 19, 2017
Time Temperature Dew Point Pressure Wind Wind Speed Wind Gust Humidity Rainfall Rate (Hourly) solar Conditions
00:02 3.8 °C 3.2 °C 1031.4 hPa Calm   1.6 km/h 96 % 0 mm 0 W/m2
00:07 3.9 °C 3.3 °C 1031.4 hPa Calm     96 % 0 mm 0 W/m2
00:08 3.9 °C 3.3 °C 1031.4 hPa Calm     96 % 0 mm 0 W/m2
00:13 3.8 °C 3.2 °C 1031.4 hPa Calm     96 % 0 mm 0 W/m2
00:18 3.8 °C 3.2 °C 1031.4 hPa Calm     96 % 0 mm 0 W/m2
00:19 3.8 °C 3.2 °C 1031.4 hPa Calm     96 % 0 mm 0 W/m2
00:24 3.9 °C 3.3 °C 1031.4 hPa Calm     96 % 0 mm 0 W/m2
00:25 3.9 °C 3.3 °C 1031.4 hPa Calm     96 % 0 mm 0 W/m2
00:30 3.9 °C 3.3 °C 1031.4 hPa Calm     96 % 0 mm 0 W/m2
00:35 3.8 °C 3.1 °C 1031.4 hPa Calm     95 % 0 mm 0 W/m2
00:40 3.6 °C 2.9 °C 1031.4 hPa Calm     95 % 0 mm 0 W/m2
00:42 3.6 °C 2.9 °C 1031.4 hPa Calm     95 % 0 mm 0 W/m2
00:47 3.6 °C 2.9 °C 1031.4 hPa Calm     95 % 0 mm 0 W/m2
00:48 3.6 °C 2.9 °C 1031.4 hPa Calm     95 % 0 mm 0 W/m2
00:53 3.6 °C 2.9 °C 1031.4 hPa Calm     95 % 0 mm 0 W/m2
00:54 3.6 °C 2.9 °C 1031.4 hPa Calm     95 % 0 mm 0 W/m2
00:59 3.7 °C 3.1 °C 1031.4 hPa Calm     96 % 0 mm 0 W/m2
01:04 3.7 °C 3.1 °C 1031.4 hPa Calm     96 % 0 mm 0 W/m2
01:09 3.6 °C 2.9 °C 1031.4 hPa Calm     95 % 0 mm 0 W/m2
01:14 3.4 °C 2.7 °C 1031.7 hPa Calm     95 % 0 mm 0 W/m2
01:19 3.2 °C 2.5 °C 1031.7 hPa Calm     95 % 0 mm 0 W/m2
01:20 3.2 °C 2.5 °C 1031.7 hPa Calm     95 % 0 mm 0 W/m2
01:25 3.1 °C 2.4 °C 1031.7 hPa Calm     95 % 0 mm 0 W/m2
01:26 3 °C 2.3 °C 1031.7 hPa Calm     95 % 0 mm 0 W/m2
01:31 3 °C 2.3 °C 1031.7 hPa Calm     95 % 0 mm 0 W/m2
01:36 3 °C 2.3 °C 1031.7 hPa Calm     95 % 0 mm 0 W/m2
01:39 3 °C 2.3 °C 1031.7 hPa Calm     95 % 0 mm 0 W/m2
01:41 3.1 °C 2.4 °C 1031.7 hPa Calm     95 % 0 mm 0 W/m2
01:44 3.1 °C 2.4 °C 1031.7 hPa Calm     95 % 0 mm 0 W/m2
01:49 3.1 °C 2.4 °C 1031.7 hPa Calm   3.2 km/h 95 % 0 mm 0 W/m2
01:50 3.1 °C 2.4 °C 1031.7 hPa Calm   3.2 km/h 95 % 0 mm 0 W/m2
01:55 3.1 °C 2.4 °C 1031.7 hPa Calm     95 % 0 mm 0 W/m2
01:56 3.1 °C 2.4 °C 1031.7 hPa Calm     95 % 0 mm 0 W/m2
01:57 3.1 °C 2.4 °C 1031.7 hPa Calm     95 % 0 mm 0 W/m2
02:02 3.2 °C 2.5 °C 1031.7 hPa NNW 1.6 km/h 3.2 km/h 95 % 0 mm 0 W/m2
02:03 3.2 °C 2.6 °C 1031.7 hPa NNW 1.6 km/h 4.8 km/h 96 % 0 mm 0 W/m2
02:05 3.3 °C 2.7 °C 1031.7 hPa NNW 3.2 km/h 8 km/h 96 % 0 mm 0 W/m2
02:10 3.4 °C 2.8 °C 1031.7 hPa NNW 1.6 km/h 6.4 km/h 96 % 0 mm 0 W/m2
02:11 3.4 °C 2.8 °C 1031.7 hPa NNW 1.6 km/h 4.8 km/h 96 % 0 mm 0 W/m2
02:16 3.4 °C 2.7 °C 1031.7 hPa Calm     95 % 0 mm 0 W/m2
02:18 3.4 °C 2.7 °C 1031.7 hPa Calm     95 % 0 mm 0 W/m2
02:19 3.4 °C 2.7 °C 1031.7 hPa Calm     95 % 0 mm 0 W/m2
02:24 3.4 °C 2.7 °C 1031.7 hPa Calm   1.6 km/h 95 % 0 mm 0 W/m2
02:28 3.3 °C 2.6 °C 1031.7 hPa Calm     95 % 0 mm 0 W/m2
02:31 3.2 °C 2.5 °C 1031.7 hPa Calm     95 % 0 mm 0 W/m2
02:36 2.9 °C 2.1 °C 1031.7 hPa Calm     94 % 0 mm 0 W/m2
02:37 2.8 °C 1.9 °C 1031.7 hPa Calm     94 % 0 mm 0 W/m2
02:42 2.5 °C 1.6 °C 1031.7 hPa Calm   1.6 km/h 94 % 0 mm 0 W/m2
02:47 2.4 °C 1.7 °C 1031.7 hPa Calm   3.2 km/h 95 % 0 mm 0 W/m2
02:49 2.5 °C 1.8 °C 1031.7 hPa Calm   1.6 km/h 95 % 0 mm 0 W/m2
02:50 2.6 °C 1.9 °C 1031.7 hPa Calm     95 % 0 mm 0 W/m2
02:54 2.6 °C 1.9 °C 1031.7 hPa Calm     95 % 0 mm 0 W/m2
02:59 2.6 °C 1.9 °C 1031.7 hPa Calm     95 % 0 mm 0 W/m2
03:02 2.6 °C 1.9 °C 1031.7 hPa Calm     95 % 0 mm 0 W/m2
03:06 2.4 °C 1.6 °C 1031.7 hPa WNW 1.6 km/h 4.8 km/h 94 % 0 mm 0 W/m2
03:09 2.4 °C 1.6 °C 1031.7 hPa WNW 3.2 km/h 8 km/h 94 % 0 mm 0 W/m2
03:15 2.2 °C 1.3 °C 1031.7 hPa Calm   3.2 km/h 94 % 0 mm 0 W/m2
03:20 1.9 °C 1.1 °C 1031.4 hPa WNW 1.6 km/h 3.2 km/h 94 % 0 mm 0 W/m2
03:25 1.6 °C 0.7 °C 1031.4 hPa WNW 1.6 km/h 6.4 km/h 94 % 0 mm 0 W/m2
03:29 1.6 °C 0.7 °C 1031.4 hPa WNW 1.6 km/h 6.4 km/h 94 % 0 mm 0 W/m2
03:34 1.4 °C 0.6 °C 1031.4 hPa Calm   3.2 km/h 94 % 0 mm 0 W/m2
03:37 1.4 °C 0.6 °C 1031.4 hPa Calm     94 % 0 mm 0 W/m2
03:41 1.5 °C 0.8 °C 1031.7 hPa WNW 1.6 km/h 4.8 km/h 95 % 0 mm 0 W/m2
03:46 1.6 °C 0.9 °C 1031.7 hPa Calm   3.2 km/h 95 % 0 mm 0 W/m2
03:48 1.7 °C 1 °C 1031.7 hPa WNW 1.6 km/h 3.2 km/h 95 % 0 mm 0 W/m2
03:51 1.7 °C 1 °C 1031.7 hPa Calm     95 % 0 mm 0 W/m2
03:53 1.7 °C 1 °C 1031.7 hPa Calm     95 % 0 mm 0 W/m2
03:55 1.7 °C 1 °C 1031.7 hPa Calm     95 % 0 mm 0 W/m2
03:58 1.7 °C 1 °C 1031.7 hPa Calm     95 % 0 mm 0 W/m2
04:02 1.8 °C 1.1 °C 1031.7 hPa Calm     95 % 0 mm 0 W/m2
04:05 1.8 °C 1.1 °C 1031.7 hPa Calm     95 % 0 mm 0 W/m2
04:09 1.8 °C 1.1 °C 1031.7 hPa Calm     95 % 0 mm 0 W/m2
04:11 1.8 °C 1.1 °C 1031.7 hPa Calm     95 % 0 mm 0 W/m2
04:14 1.9 °C 1.3 °C 1031.7 hPa Calm     96 % 0 mm 0 W/m2
04:19 2.2 °C 1.6 °C 1031.7 hPa Calm     96 % 0 mm 0 W/m2
04:24 2.3 °C 1.7 °C 1031.7 hPa Calm     96 % 0 mm 0 W/m2
04:25 2.3 °C 1.7 °C 1031.7 hPa Calm     96 % 0 mm 0 W/m2
04:27 2.3 °C 1.7 °C 1031.7 hPa Calm     96 % 0 mm 0 W/m2
04:32 2.3 °C 1.7 °C 1031.7 hPa Calm     96 % 0 mm 0 W/m2
04:34 2.3 °C 1.7 °C 1031.7 hPa Calm   3.2 km/h 96 % 0 mm 0 W/m2
04:40 2.4 °C 1.8 °C 1031.7 hPa Calm     96 % 0 mm 0 W/m2
04:41 2.4 °C 1.8 °C 1032.1 hPa Calm     96 % 0 mm 0 W/m2
04:42 2.5 °C 1.9 °C 1031.7 hPa Calm     96 % 0 mm 0 W/m2
04:46 2.6 °C 2 °C 1031.7 hPa Calm     96 % 0 mm 0 W/m2
04:51 2.7 °C 2.1 °C 1031.7 hPa Calm     96 % 0 mm 0 W/m2
04:56 2.8 °C 2.2 °C 1031.7 hPa Calm     96 % 0 mm 0 W/m2
04:58 2.8 °C 2.2 °C 1031.7 hPa Calm   1.6 km/h 96 % 0 mm 0 W/m2
05:03 2.8 °C 2.2 °C 1031.7 hPa Calm     96 % 0 mm 0 W/m2
05:06 2.9 °C 2.3 °C 1031.7 hPa Calm     96 % 0 mm 0 W/m2
05:10 2.9 °C 2.3 °C 1031.7 hPa Calm     96 % 0 mm 0 W/m2
05:12 3 °C 2.4 °C 1031.7 hPa Calm     96 % 0 mm 0 W/m2
05:15 3.1 °C 2.5 °C 1031.7 hPa Calm   1.6 km/h 96 % 0 mm 0 W/m2
05:17 3.1 °C 2.5 °C 1031.7 hPa Calm     96 % 0 mm 0 W/m2
05:22 3.1 °C 2.5 °C 1031.7 hPa Calm     96 % 0 mm 0 W/m2
05:23 3.1 °C 2.5 °C 1031.7 hPa Calm     96 % 0 mm 0 W/m2
05:28 3.1 °C 2.5 °C 1032.1 hPa Calm     96 % 0 mm 0 W/m2
05:29 3.1 °C 2.5 °C 1032.1 hPa Calm     96 % 0 mm 0 W/m2
05:30 3 °C 2.4 °C 1032.1 hPa Calm     96 % 0 mm 0 W/m2
05:35 2.9 °C 2.3 °C 1031.7 hPa Calm     96 % 0 mm 0 W/m2
05:40 2.9 °C 2.3 °C 1031.7 hPa Calm     96 % 0 mm 0 W/m2
05:41 2.9 °C 2.3 °C 1031.7 hPa Calm     96 % 0 mm 0 W/m2
05:43 2.9 °C 2.3 °C 1031.7 hPa Calm     96 % 0 mm 0 W/m2
05:48 2.9 °C 2.3 °C 1031.7 hPa Calm     96 % 0 mm 0 W/m2
05:51 2.8 °C 2.1 °C 1031.7 hPa Calm     95 % 0 mm 0 W/m2
05:55 2.8 °C 2.2 °C 1031.7 hPa Calm     96 % 0 mm 0 W/m2
05:57 2.8 °C 2.1 °C 1031.7 hPa Calm     95 % 0 mm 0 W/m2
06:02 2.7 °C 2 °C 1031.7 hPa Calm     95 % 0 mm 0 W/m2
06:04 2.7 °C 2 °C 1031.7 hPa Calm     95 % 0 mm 0 W/m2
06:09 2.6 °C 1.9 °C 1031.7 hPa Calm     95 % 0 mm 0 W/m2
06:10 2.5 °C 1.8 °C 1031.7 hPa Calm     95 % 0 mm 0 W/m2
06:12 2.5 °C 1.8 °C 1031.7 hPa Calm     95 % 0 mm 0 W/m2
06:15 2.4 °C 1.7 °C 1031.7 hPa Calm     95 % 0 mm 0 W/m2
06:20 2.4 °C 1.7 °C 1031.7 hPa Calm     95 % 0 mm 0 W/m2
06:23 2.4 °C 1.7 °C 1031.7 hPa Calm     95 % 0 mm 0 W/m2
06:25 2.3 °C 1.6 °C 1032.1 hPa Calm     95 % 0 mm 0 W/m2
06:30 2.3 °C 1.6 °C 1032.1 hPa Calm     95 % 0 mm 0 W/m2
06:33 2.2 °C 1.5 °C 1032.1 hPa Calm     95 % 0 mm 0 W/m2
06:35 2.2 °C 1.5 °C 1032.1 hPa Calm     95 % 0 mm 0 W/m2
06:40 2.1 °C 1.4 °C 1032.1 hPa Calm     95 % 0 mm 0 W/m2
06:44 2 °C 1.3 °C 1032.1 hPa Calm     95 % 0 mm 0 W/m2
06:46 2 °C 1.3 °C 1032.1 hPa Calm     95 % 0 mm 0 W/m2
06:49 1.9 °C 1.2 °C 1032.1 hPa Calm     95 % 0 mm 0 W/m2
06:51 1.9 °C 1.2 °C 1032.1 hPa Calm     95 % 0 mm 0 W/m2
06:52 1.9 °C 1.2 °C 1032.1 hPa Calm     95 % 0 mm 0 W/m2
06:57 1.9 °C 1.2 °C 1032.1 hPa Calm     95 % 0 mm 0 W/m2
06:59 1.9 °C 1.2 °C 1032.1 hPa Calm     95 % 0 mm 0 W/m2
07:01 1.9 °C 1.2 °C 1032.1 hPa Calm     95 % 0 mm 0 W/m2
07:06 1.9 °C 1.3 °C 1032.1 hPa Calm     96 % 0 mm 0 W/m2
07:11 1.9 °C 1.2 °C 1032.1 hPa Calm   1.6 km/h 95 % 0 mm 0 W/m2
07:14 1.9 °C 1.3 °C 1032.1 hPa Calm   3.2 km/h 96 % 0 mm 0 W/m2
07:19 1.9 °C 1.2 °C 1032.1 hPa Calm     95 % 0 mm 0 W/m2
07:20 1.9 °C 1.2 °C 1032.1 hPa Calm     95 % 0 mm 0 W/m2
07:25 1.7 °C 1 °C 1032.1 hPa Calm     95 % 0 mm 0 W/m2
07:26 1.6 °C 0.9 °C 1032.4 hPa Calm     95 % 0 mm 0 W/m2
07:29 1.6 °C 0.9 °C 1032.4 hPa Calm     95 % 0 mm 0 W/m2
07:32 1.5 °C 0.8 °C 1032.4 hPa Calm   1.6 km/h 95 % 0 mm 0 W/m2
07:37 1.5 °C 0.8 °C 1032.4 hPa Calm     95 % 0 mm 0 W/m2
07:38 1.5 °C 0.8 °C 1032.4 hPa Calm     95 % 0 mm 0 W/m2
07:43 1.4 °C 0.7 °C 1032.4 hPa Calm     95 % 0 mm 0 W/m2
07:45 1.4 °C 0.7 °C 1032.4 hPa Calm     95 % 0 mm 0 W/m2
07:50 1.4 °C 0.7 °C 1032.4 hPa WNW 1.6 km/h 1.6 km/h 95 % 0 mm 0 W/m2
07:54 1.4 °C 0.7 °C 1032.4 hPa Calm     95 % 0 mm 0 W/m2
07:59 1.4 °C 0.7 °C 1032.4 hPa Calm     95 % 0 mm 0 W/m2
08:01 1.4 °C 0.7 °C 1032.4 hPa Calm   1.6 km/h 95 % 0 mm 0 W/m2
08:03 1.4 °C 0.7 °C 1032.4 hPa WNW 1.6 km/h 4.8 km/h 95 % 0 mm 0 W/m2
08:08 1.3 °C 0.6 °C 1032.4 hPa Calm     95 % 0 mm 0 W/m2
08:10 1.3 °C 0.7 °C 1032.7 hPa Calm   1.6 km/h 96 % 0 mm 5 W/m2
08:15 1.4 °C 0.8 °C 1032.7 hPa Calm     96 % 0 mm 0 W/m2
08:19 1.3 °C 0.7 °C 1032.7 hPa Calm     96 % 0 mm 5 W/m2
08:24 1.3 °C 0.7 °C 1032.7 hPa Calm     96 % 0 mm 7 W/m2
08:26 1.3 °C 0.7 °C 1032.7 hPa Calm     96 % 0 mm 7 W/m2
08:29 1.3 °C 0.7 °C 1032.7 hPa Calm     96 % 0 mm 11 W/m2
08:34 1.3 °C 0.7 °C 1032.7 hPa Calm   3.2 km/h 96 % 0 mm 18 W/m2
08:38 1.3 °C 0.7 °C 1032.7 hPa Calm     96 % 0 mm 21 W/m2
08:41 1.4 °C 0.8 °C 1032.7 hPa Calm     96 % 0 mm 23 W/m2
08:43 1.4 °C 0.8 °C 1032.7 hPa Calm     96 % 0 mm 25 W/m2
08:48 1.4 °C 0.8 °C 1032.7 hPa Calm   3.2 km/h 96 % 0 mm 26 W/m2
08:53 1.6 °C 1.1 °C 1032.7 hPa Calm     96 % 0 mm 30 W/m2
08:57 1.6 °C 1.1 °C 1032.7 hPa Calm   4.8 km/h 96 % 0 mm 32 W/m2
08:58 1.7 °C 1.1 °C 1032.7 hPa Calm   4.8 km/h 96 % 0 mm 33 W/m2
09:03 1.8 °C 1.2 °C 1032.7 hPa West 1.6 km/h 8 km/h 96 % 0 mm 37 W/m2
09:04 1.8 °C 1.2 °C 1032.7 hPa West 1.6 km/h 8 km/h 96 % 0 mm 39 W/m2
09:05 1.8 °C 1.2 °C 1032.7 hPa Calm   1.6 km/h 96 % 0 mm 40 W/m2
09:10 1.9 °C 1.3 °C 1032.7 hPa Calm     96 % 0 mm 51 W/m2
09:15 2 °C 1.4 °C 1032.7 hPa Calm   3.2 km/h 96 % 0 mm 58 W/m2
09:17 2.1 °C 1.6 °C 1032.7 hPa Calm     96 % 0 mm 56 W/m2
09:22 2.2 °C 1.6 °C 1032.7 hPa Calm     96 % 0 mm 58 W/m2
09:23 2.2 °C 1.6 °C 1032.7 hPa Calm     96 % 0 mm 72 W/m2
09:25 2.3 °C 1.7 °C 1032.7 hPa Calm     96 % 0 mm 91 W/m2
09:28 2.4 °C 2 °C 1032.7 hPa Calm     97 % 0 mm 54 W/m2
09:32 2.4 °C 1.8 °C 1032.7 hPa Calm     96 % 0 mm 84 W/m2
09:33 2.5 °C 1.9 °C 1033.1 hPa Calm     96 % 0 mm 98 W/m2
09:38 2.6 °C 2.2 °C 1033.1 hPa Calm     97 % 0 mm 111 W/m2
09:40 2.7 °C 2.3 °C 1033.1 hPa Calm     97 % 0 mm 84 W/m2
09:45 2.9 °C 2.4 °C 1033.1 hPa Calm     97 % 0 mm 39 W/m2
09:47 3 °C 2.6 °C 1033.1 hPa Calm     97 % 0 mm 42 W/m2
09:52 3.2 °C 2.8 °C 1033.1 hPa Calm     97 % 0 mm 58 W/m2
09:53 3.2 °C 2.8 °C 1033.1 hPa Calm     97 % 0 mm 58 W/m2
09:58 3.2 °C 2.8 °C 1032.7 hPa Calm     97 % 0 mm 81 W/m2
10:01 3.2 °C 2.6 °C 1033.1 hPa Calm     96 % 0 mm 79 W/m2
10:03 3.2 °C 2.6 °C 1032.7 hPa Calm     96 % 0 mm 167 W/m2
10:06 3.3 °C 2.7 °C 1032.7 hPa North 1.6 km/h 3.2 km/h 96 % 0 mm 100 W/m2
10:10 3.6 °C 3.2 °C 1032.7 hPa Calm     97 % 0 mm 181 W/m2
10:14 3.9 °C 3.4 °C 1032.7 hPa Calm     97 % 0 mm 176 W/m2
10:19 4.3 °C 3.9 °C 1033.1 hPa Calm     97 % 0 mm 105 W/m2
10:24 4.6 °C 4.2 °C 1033.1 hPa Calm     97 % 0 mm 44 W/m2
10:29 4.8 °C 4.4 °C 1033.1 hPa Calm     97 % 0 mm 35 W/m2
10:34 4.8 °C 4.4 °C 1033.1 hPa Calm     97 % 0 mm 30 W/m2
10:35 4.8 °C 4.4 °C 1033.1 hPa Calm     97 % 0 mm 30 W/m2
10:40 4.7 °C 4.1 °C 1033.1 hPa Calm     96 % 0 mm 28 W/m2
10:45 4.5 °C 3.8 °C 1033.1 hPa Calm     95 % 0 mm 26 W/m2
10:46 4.4 °C 3.7 °C 1033.1 hPa Calm     95 % 0 mm 26 W/m2
10:51 4.1 °C 3.2 °C 1032.7 hPa Calm     94 % 0 mm 25 W/m2
10:52 4.1 °C 3.2 °C 1032.7 hPa Calm     94 % 0 mm 25 W/m2
10:55 3.9 °C 3 °C 1033.1 hPa Calm     94 % 0 mm 26 W/m2
11:00 3.8 °C 2.9 °C 1033.1 hPa Calm     94 % 0 mm 26 W/m2
11:05 3.7 °C 3 °C 1033.1 hPa Calm   3.2 km/h 95 % 0 mm 72 W/m2
11:08 3.6 °C 2.9 °C 1032.7 hPa NNW 4.8 km/h 8 km/h 95 % 0 mm 123 W/m2
11:10 3.6 °C 2.9 °C 1032.7 hPa NNW 6.4 km/h 8 km/h 95 % 0 mm 156 W/m2
11:15 3.8 °C 3.1 °C 1032.7 hPa Calm   1.6 km/h 95 % 0 mm 199 W/m2
11:16 3.9 °C 3.3 °C 1032.7 hPa Calm     96 % 0 mm 213 W/m2
11:20 4.2 °C 3.6 °C 1032.7 hPa Calm     96 % 0 mm 183 W/m2
11:23 4.3 °C 3.7 °C 1032.7 hPa Calm     96 % 0 mm 221 W/m2
11:28 4.8 °C 4.2 °C 1032.7 hPa Calm     96 % 0 mm 185 W/m2
11:32 5 °C 4.4 °C 1032.7 hPa Calm     96 % 0 mm 232 W/m2
11:37 5.3 °C 4.7 °C 1032.7 hPa Calm   1.6 km/h 96 % 0 mm 251 W/m2
11:42 5.6 °C 5 °C 1032.4 hPa Calm     96 % 0 mm 253 W/m2
11:44 5.8 °C 5.2 °C 1032.4 hPa Calm     96 % 0 mm 243 W/m2
11:49 6.4 °C 5.8 °C 1032.4 hPa Calm   3.2 km/h 96 % 0 mm 250 W/m2
11:50 6.4 °C 5.8 °C 1032.4 hPa Calm     96 % 0 mm 250 W/m2
11:55 6.7 °C 5.9 °C 1032.4 hPa Calm   1.6 km/h 95 % 0 mm 253 W/m2
11:56 6.8 °C 6.1 °C 1032.4 hPa Calm   1.6 km/h 95 % 0 mm 253 W/m2
12:01 7.2 °C 6.4 °C 1032.4 hPa Calm     95 % 0 mm 260 W/m2
12:07 7.8 °C 6.9 °C 1032.1 hPa Calm     94 % 0 mm 258 W/m2
12:08 7.9 °C 7 °C 1032.1 hPa Calm     94 % 0 mm 258 W/m2
12:13 8.4 °C 7.3 °C 1032.1 hPa SSE 4.8 km/h 8 km/h 93 % 0 mm 262 W/m2
12:18 8.6 °C 7.1 °C 1032.1 hPa SE 3.2 km/h 6.4 km/h 90 % 0 mm 271 W/m2
12:19 8.6 °C 6.9 °C 1032.1 hPa SE 3.2 km/h 6.4 km/h 89 % 0 mm 269 W/m2
12:24 8.6 °C 6.6 °C 1032.1 hPa ESE 1.6 km/h 3.2 km/h 87 % 0 mm 265 W/m2
12:29 8.8 °C 6.8 °C 1032.1 hPa Calm   4.8 km/h 87 % 0 mm 264 W/m2
12:30 8.8 °C 6.8 °C 1032.1 hPa Calm   4.8 km/h 87 % 0 mm 264 W/m2
12:32 8.9 °C 7 °C 1032.1 hPa Calm   1.6 km/h 88 % 0 mm 264 W/m2
12:35 9.1 °C 7.2 °C 1032.1 hPa Calm     88 % 0 mm 258 W/m2
12:40 9.6 °C 7.6 °C 1032.1 hPa Calm   3.2 km/h 87 % 0 mm 244 W/m2
12:43 9.8 °C 7.7 °C 1032.1 hPa Calm   3.2 km/h 87 % 0 mm 243 W/m2
12:46 10.1 °C 7.9 °C 1032.1 hPa Calm     86 % 0 mm 239 W/m2
12:51 10.5 °C 7.9 °C 1032.1 hPa SSE 1.6 km/h 4.8 km/h 84 % 0 mm 236 W/m2
12:53 10.5 °C 7.9 °C 1032.1 hPa Calm   1.6 km/h 84 % 0 mm 234 W/m2
12:58 10.7 °C 7.9 °C 1032.1 hPa Calm   1.6 km/h 83 % 0 mm 227 W/m2
13:01 10.7 °C 7.9 °C 1032.1 hPa Calm   3.2 km/h 83 % 0 mm 223 W/m2
13:06 10.9 °C 7.9 °C 1032.1 hPa SSE 3.2 km/h 8 km/h 82 % 0 mm 214 W/m2
13:11 10.9 °C 7.8 °C 1031.7 hPa ESE 3.2 km/h 6.4 km/h 81 % 0 mm 206 W/m2
13:12 10.9 °C 7.9 °C 1031.7 hPa ESE 3.2 km/h 6.4 km/h 82 % 0 mm 206 W/m2
13:13 10.9 °C 7.9 °C 1031.7 hPa ESE 3.2 km/h 6.4 km/h 82 % 0 mm 204 W/m2
13:18 10.8 °C 7.7 °C 1032.1 hPa East 3.2 km/h 6.4 km/h 81 % 0 mm 195 W/m2
13:23 10.8 °C 7.7 °C 1032.1 hPa East 1.6 km/h 4.8 km/h 81 % 0 mm 192 W/m2
13:24 10.8 °C 7.8 °C 1032.1 hPa East 1.6 km/h 4.8 km/h 82 % 0 mm 190 W/m2
13:29 10.8 °C 7.7 °C 1032.1 hPa East 1.6 km/h 3.2 km/h 81 % 0 mm 193 W/m2
13:30 10.8 °C 7.7 °C 1032.1 hPa East 1.6 km/h 3.2 km/h 81 % 0 mm 193 W/m2
13:33 10.8 °C 7.7 °C 1032.1 hPa East 3.2 km/h 6.4 km/h 81 % 0 mm 171 W/m2
13:35 10.9 °C 7.6 °C 1032.1 hPa East 1.6 km/h 6.4 km/h 80 % 0 mm 130 W/m2
13:40 10.9 °C 7.6 °C 1031.7 hPa East 1.6 km/h 3.2 km/h 80 % 0 mm 178 W/m2
13:41 10.9 °C 7.6 °C 1031.7 hPa East 1.6 km/h 3.2 km/h 80 % 0 mm 176 W/m2
13:46 10.9 °C 7.6 °C 1032.1 hPa East 1.6 km/h 4.8 km/h 80 % 0 mm 181 W/m2
13:50 10.9 °C 7.8 °C 1032.1 hPa East 1.6 km/h 4.8 km/h 81 % 0 mm 174 W/m2
13:55 11 °C 7.5 °C 1032.1 hPa ESE 3.2 km/h 6.4 km/h 79 % 0 mm 37 W/m2
13:56 11 °C 7.5 °C 1032.1 hPa ESE 3.2 km/h 6.4 km/h 79 % 0 mm 32 W/m2
13:58 10.9 °C 7.2 °C 1032.1 hPa ESE 4.8 km/h 9.7 km/h 78 % 0 mm 25 W/m2
14:00 10.8 °C 7.1 °C 1032.1 hPa ESE 6.4 km/h 9.7 km/h 78 % 0 mm 23 W/m2
14:03 10.3 °C 6.6 °C 1032.1 hPa East 1.6 km/h 8 km/h 78 % 0 mm 25 W/m2
14:08 9.9 °C 6.4 °C 1032.1 hPa Calm   3.2 km/h 79 % 0 mm 23 W/m2
14:09 9.9 °C 6.4 °C 1032.1 hPa Calm   1.6 km/h 79 % 0 mm 21 W/m2
14:14 9.6 °C 6.5 °C 1032.1 hPa Calm     81 % 0 mm 19 W/m2
14:19 9.5 °C 6.6 °C 1032.1 hPa Calm     82 % 0 mm 81 W/m2
14:24 9.6 °C 6.8 °C 1032.1 hPa South 1.6 km/h 4.8 km/h 83 % 0 mm 132 W/m2
14:29 9.6 °C 6.8 °C 1032.1 hPa Calm   1.6 km/h 83 % 0 mm 98 W/m2
14:32 9.6 °C 6.7 °C 1032.1 hPa Calm   1.6 km/h 82 % 0 mm 76 W/m2
14:37 9.7 °C 6.8 °C 1032.1 hPa Calm     82 % 0 mm 88 W/m2
14:38 9.7 °C 6.8 °C 1032.1 hPa Calm     82 % 0 mm 88 W/m2
14:43 9.8 °C 6.9 °C 1032.1 hPa Calm   3.2 km/h 82 % 0 mm 81 W/m2
14:48 9.9 °C 6.9 °C 1032.1 hPa Calm   3.2 km/h 82 % 0 mm 70 W/m2
14:49 9.9 °C 6.9 °C 1032.1 hPa Calm   3.2 km/h 82 % 0 mm 70 W/m2
14:54 9.9 °C 6.9 °C 1032.1 hPa WSW 1.6 km/h 3.2 km/h 82 % 0 mm 58 W/m2
14:55 9.8 °C 6.9 °C 1032.1 hPa WSW 1.6 km/h 3.2 km/h 82 % 0 mm 35 W/m2
14:56 9.8 °C 7.1 °C 1032.1 hPa WSW 1.6 km/h 4.8 km/h 83 % 0 mm 26 W/m2
15:01 9.8 °C 7.2 °C 1032.1 hPa West 1.6 km/h 6.4 km/h 84 % 0 mm 19 W/m2
15:04 9.8 °C 7.4 °C 1032.1 hPa West 4.8 km/h 11.3 km/h 85 % 0 mm 18 W/m2
15:09 9.8 °C 7.7 °C 1032.1 hPa West 9.7 km/h 12.9 km/h 87 % 0 mm 18 W/m2
15:14 9.8 °C 7.7 °C 1032.1 hPa West 8 km/h 11.3 km/h 87 % 0 mm 14 W/m2
15:15 9.8 °C 7.7 °C 1032.1 hPa WNW 8 km/h 11.3 km/h 87 % 0 mm 14 W/m2
15:20 9.7 °C 7.8 °C 1032.1 hPa West 8 km/h 9.7 km/h 88 % 0 mm 12 W/m2
15:22 9.7 °C 7.8 °C 1032.1 hPa West 8 km/h 11.3 km/h 88 % 0 mm 12 W/m2
15:24 9.7 °C 7.8 °C 1032.1 hPa West 8 km/h 9.7 km/h 88 % 0 mm 12 W/m2
15:29 9.6 °C 7.7 °C 1032.1 hPa West 9.7 km/h 12.9 km/h 88 % 0 mm 11 W/m2
15:30 9.6 °C 7.9 °C 1032.1 hPa West 8 km/h 12.9 km/h 89 % 0 mm 9 W/m2
15:33 9.5 °C 7.8 °C 1032.4 hPa WSW 9.7 km/h 12.9 km/h 89 % 0 mm 9 W/m2
15:38 9.4 °C 7.7 °C 1032.4 hPa West 3.2 km/h 9.7 km/h 89 % 0 mm 7 W/m2
15:39 9.4 °C 7.7 °C 1032.4 hPa West 3.2 km/h 9.7 km/h 89 % 0 mm 7 W/m2
15:41 9.4 °C 7.7 °C 1032.4 hPa West 3.2 km/h 6.4 km/h 89 % 0 mm 5 W/m2
15:46 9.3 °C 7.6 °C 1032.4 hPa West 3.2 km/h 8 km/h 89 % 0 mm 5 W/m2
15:48 9.2 °C 7.5 °C 1032.4 hPa WSW 3.2 km/h 8 km/h 89 % 0 mm 0 W/m2
15:53 9.1 °C 7.4 °C 1032.4 hPa West 1.6 km/h 6.4 km/h 89 % 0 mm 0 W/m2
15:54 9.1 °C 7.4 °C 1032.4 hPa West 1.6 km/h 6.4 km/h 89 % 0 mm 0 W/m2
15:59 8.9 °C 7.2 °C 1032.4 hPa West 3.2 km/h 8 km/h 89 % 0 mm 0 W/m2
16:04 8.7 °C 7.2 °C 1032.4 hPa West 4.8 km/h 8 km/h 90 % 0 mm 0 W/m2
16:06 8.7 °C 7.2 °C 1032.4 hPa West 4.8 km/h 8 km/h 90 % 0 mm 0 W/m2
16:08 8.6 °C 7.1 °C 1032.4 hPa West 6.4 km/h 9.7 km/h 90 % 0 mm 0 W/m2
16:12 8.5 °C 6.9 °C 1032.4 hPa West 6.4 km/h 8 km/h 90 % 0 mm 0 W/m2
16:17 8.4 °C 6.8 °C 1032.4 hPa WNW 8 km/h 11.3 km/h 90 % 0 mm 0 W/m2
16:21 8.3 °C 6.8 °C 1032.1 hPa WNW 6.4 km/h 11.3 km/h 90 % 0 mm 0 W/m2
16:26 8.2 °C 6.8 °C 1032.1 hPa WNW 8 km/h 12.9 km/h 91 % 0 mm 0 W/m2
16:29 8.2 °C 6.8 °C 1032.1 hPa WNW 8 km/h 11.3 km/h 91 % 0 mm 0 W/m2
16:31 8.1 °C 6.7 °C 1032.4 hPa WNW 8 km/h 11.3 km/h 91 % 0 mm 0 W/m2
16:35 8.1 °C 6.9 °C 1032.1 hPa WNW 8 km/h 12.9 km/h 92 % 0 mm 0 W/m2
16:36 8.2 °C 7 °C 1032.4 hPa WNW 8 km/h 11.3 km/h 92 % 0 mm 0 W/m2
16:41 8.2 °C 7 °C 1032.4 hPa West 8 km/h 11.3 km/h 92 % 0 mm 0 W/m2
16:46 8.2 °C 7 °C 1032.4 hPa Calm   3.2 km/h 92 % 0 mm 0 W/m2
16:47 8.2 °C 7 °C 1032.4 hPa Calm   3.2 km/h 92 % 0 mm 0 W/m2
16:52 8.2 °C 7 °C 1032.4 hPa Calm     92 % 0 mm 0 W/m2
16:57 8.1 °C 6.9 °C 1032.4 hPa Calm   6.4 km/h 92 % 0 mm 0 W/m2
16:58 8.1 °C 6.9 °C 1032.4 hPa Calm   6.4 km/h 92 % 0 mm 0 W/m2
17:03 8 °C 6.8 °C 1032.4 hPa West 9.7 km/h 12.9 km/h 92 % 0 mm 0 W/m2
17:04 8 °C 6.8 °C 1032.4 hPa WNW 9.7 km/h 16.1 km/h 92 % 0 mm 0 W/m2
17:06 7.9 °C 6.8 °C 1032.4 hPa WNW 11.3 km/h 17.7 km/h 93 % 0 mm 0 W/m2
17:11 8.1 °C 7.1 °C 1032.4 hPa West 9.7 km/h 14.5 km/h 93 % 0 mm 0 W/m2
17:16 8.3 °C 7.2 °C 1032.1 hPa West 9.7 km/h 14.5 km/h 93 % 0 mm 0 W/m2
17:17 8.3 °C 7.2 °C 1032.1 hPa West 9.7 km/h 14.5 km/h 93 % 0 mm 0 W/m2
17:18 8.3 °C 7.2 °C 1032.1 hPa West 8 km/h 14.5 km/h 93 % 0 mm 0 W/m2
17:23 8.3 °C 7.2 °C 1032.1 hPa West 8 km/h 12.9 km/h 93 % 0 mm 0 W/m2
17:27 8.3 °C 7.2 °C 1032.4 hPa West 6.4 km/h 11.3 km/h 93 % 0 mm 0 W/m2
17:31 8.3 °C 7.2 °C 1032.4 hPa West 8 km/h 12.9 km/h 93 % 0 mm 0 W/m2
17:34 8.3 °C 7.2 °C 1032.4 hPa WNW 9.7 km/h 12.9 km/h 93 % 0 mm 0 W/m2
17:39 8.4 °C 7.3 °C 1032.1 hPa WNW 9.7 km/h 12.9 km/h 93 % 0 mm 0 W/m2
17:44 8.4 °C 7.3 °C 1032.1 hPa WNW 11.3 km/h 17.7 km/h 93 % 0 mm 0 W/m2
17:49 8.5 °C 7.4 °C 1032.4 hPa WNW 11.3 km/h 19.3 km/h 93 % 0 mm 0 W/m2
17:51 8.6 °C 7.7 °C 1032.4 hPa WNW 12.9 km/h 19.3 km/h 94 % 0 mm 0 W/m2
17:52 8.6 °C 7.7 °C 1032.4 hPa WNW 12.9 km/h 17.7 km/h 94 % 0 mm 0 W/m2
17:57 8.7 °C 7.8 °C 1032.4 hPa WNW 9.7 km/h 12.9 km/h 94 % 0 mm 0 W/m2
17:58 8.7 °C 7.6 °C 1032.4 hPa WNW 9.7 km/h 12.9 km/h 93 % 0 mm 0 W/m2
17:59 8.7 °C 7.6 °C 1032.4 hPa WNW 11.3 km/h 17.7 km/h 93 % 0 mm 0 W/m2
18:03 8.8 °C 7.9 °C 1032.4 hPa WNW 11.3 km/h 17.7 km/h 94 % 0 mm 0 W/m2
18:07 8.8 °C 7.7 °C 1032.4 hPa West 1.6 km/h 8 km/h 93 % 0 mm 0 W/m2
18:09 8.7 °C 7.5 °C 1032.4 hPa West 1.6 km/h 8 km/h 92 % 0 mm 0 W/m2
18:14 8.6 °C 7.4 °C 1032.4 hPa WNW 1.6 km/h 8 km/h 92 % 0 mm 0 W/m2
18:15 8.5 °C 7.3 °C 1032.4 hPa WNW 3.2 km/h 8 km/h 92 % 0 mm 0 W/m2
18:17 8.5 °C 7.3 °C 1032.4 hPa WNW 3.2 km/h 8 km/h 92 % 0 mm 0 W/m2
18:21 8.5 °C 7.4 °C 1032.4 hPa WNW 6.4 km/h 12.9 km/h 93 % 0 mm 0 W/m2
18:22 8.5 °C 7.4 °C 1032.4 hPa WNW 6.4 km/h 12.9 km/h 93 % 0 mm 0 W/m2
18:27 8.5 °C 7.4 °C 1032.4 hPa WNW 8 km/h 12.9 km/h 93 % 0 mm 0 W/m2
18:28 8.5 °C 7.4 °C 1032.4 hPa WNW 8 km/h 12.9 km/h 93 % 0 mm 0 W/m2
18:33 8.6 °C 7.6 °C 1032.4 hPa WNW 8 km/h 12.9 km/h 93 % 0 mm 0 W/m2
18:34 8.6 °C 7.6 °C 1032.4 hPa WNW 8 km/h 12.9 km/h 93 % 0 mm 0 W/m2
18:39 8.6 °C 7.6 °C 1032.4 hPa WNW 9.7 km/h 16.1 km/h 93 % 0 mm 0 W/m2
18:41 8.7 °C 7.8 °C 1032.4 hPa WNW 14.5 km/h 19.3 km/h 94 % 0 mm 0 W/m2
18:46 8.9 °C 8 °C 1032.4 hPa WNW 11.3 km/h 19.3 km/h 94 % 0 mm 0 W/m2
18:48 8.9 °C 8 °C 1032.4 hPa WNW 9.7 km/h 14.5 km/h 94 % 0 mm 0 W/m2
18:51 8.9 °C 8 °C 1032.4 hPa WNW 9.7 km/h 12.9 km/h 94 % 0 mm 0 W/m2
18:56 8.9 °C 8 °C 1032.4 hPa West 8 km/h 11.3 km/h 94 % 0 mm 0 W/m2
18:58 8.9 °C 8 °C 1032.4 hPa West 6.4 km/h 9.7 km/h 94 % 0 mm 0 W/m2
19:00 8.9 °C 7.8 °C 1032.4 hPa West 8 km/h 14.5 km/h 93 % 0 mm 0 W/m2
19:04 8.9 °C 8 °C 1032.4 hPa West 9.7 km/h 12.9 km/h 94 % 0 mm 0 W/m2
19:06 8.9 °C 8 °C 1032.4 hPa West 8 km/h 11.3 km/h 94 % 0 mm 0 W/m2
19:08 8.9 °C 7.8 °C 1032.4 hPa West 4.8 km/h 12.9 km/h 93 % 0 mm 0 W/m2
19:11 8.9 °C 7.8 °C 1032.4 hPa West 6.4 km/h 12.9 km/h 93 % 0 mm 0 W/m2
19:16 8.8 °C 7.7 °C 1032.4 hPa West 6.4 km/h 9.7 km/h 93 % 0 mm 0 W/m2
19:17 8.8 °C 7.7 °C 1032.4 hPa West 6.4 km/h 11.3 km/h 93 % 0 mm 0 W/m2
19:22 8.8 °C 7.7 °C 1032.4 hPa WNW 6.4 km/h 9.7 km/h 93 % 0 mm 0 W/m2
19:27 8.7 °C 7.6 °C 1032.4 hPa West 6.4 km/h 11.3 km/h 93 % 0 mm 0 W/m2
19:32 8.8 °C 7.9 °C 1032.4 hPa West 14.5 km/h 24.1 km/h 94 % 0 mm 0 W/m2
19:33 8.8 °C 7.9 °C 1032.4 hPa West 14.5 km/h 24.1 km/h 94 % 0 mm 0 W/m2
19:38 8.9 °C 8 °C 1032.4 hPa West 9.7 km/h 16.1 km/h 94 % 0 mm 0 W/m2
19:40 8.9 °C 8 °C 1032.4 hPa West 9.7 km/h 14.5 km/h 94 % 0 mm 0 W/m2
19:45 8.9 °C 8 °C 1032.4 hPa West 6.4 km/h 9.7 km/h 94 % 0 mm 0 W/m2
19:49 8.9 °C 7.8 °C 1032.4 hPa West 6.4 km/h 9.7 km/h 93 % 0 mm 0 W/m2
19:51 8.9 °C 7.8 °C 1032.4 hPa WNW 6.4 km/h 9.7 km/h 93 % 0 mm 0 W/m2
19:55 8.8 °C 7.7 °C 1032.4 hPa WNW 8 km/h 9.7 km/h 93 % 0 mm 0 W/m2
19:57 8.8 °C 7.7 °C 1032.4 hPa WNW 8 km/h 9.7 km/h 93 % 0 mm 0 W/m2
20:02 8.8 °C 7.9 °C 1032.4 hPa WNW 6.4 km/h 9.7 km/h 94 % 0 mm 0 W/m2
20:06 8.7 °C 7.6 °C 1032.4 hPa WNW 8 km/h 11.3 km/h 93 % 0 mm 0 W/m2
20:09 8.7 °C 7.8 °C 1032.4 hPa WNW 8 km/h 11.3 km/h 94 % 0 mm 0 W/m2
20:12 8.7 °C 7.6 °C 1032.4 hPa WNW 8 km/h 11.3 km/h 93 % 0 mm 0 W/m2
20:14 8.7 °C 7.6 °C 1032.4 hPa WNW 6.4 km/h 11.3 km/h 93 % 0 mm 0 W/m2
20:20 8.7 °C 7.8 °C 1032.4 hPa West 6.4 km/h 9.7 km/h 94 % 0 mm 0 W/m2
20:25 8.7 °C 7.8 °C 1032.4 hPa WNW 8 km/h 11.3 km/h 94 % 0 mm 0 W/m2
20:27 8.6 °C 7.7 °C 1032.4 hPa WNW 8 km/h 11.3 km/h 94 % 0 mm 0 W/m2
20:32 8.7 °C 7.8 °C 1032.7 hPa WNW 9.7 km/h 14.5 km/h 94 % 0 mm 0 W/m2
20:37 8.8 °C 7.9 °C 1032.7 hPa West 11.3 km/h 20.9 km/h 94 % 0 mm 0 W/m2
20:42 8.8 °C 7.9 °C 1032.7 hPa West 6.4 km/h 11.3 km/h 94 % 0 mm 0 W/m2
20:44 8.8 °C 7.9 °C 1032.7 hPa WNW 4.8 km/h 8 km/h 94 % 0 mm 0 W/m2
20:49 8.8 °C 7.9 °C 1032.7 hPa WNW 6.4 km/h 14.5 km/h 94 % 0 mm 0 W/m2
20:53 8.8 °C 7.9 °C 1032.7 hPa West 6.4 km/h 8 km/h 94 % 0 mm 0 W/m2
20:56 8.8 °C 7.9 °C 1032.7 hPa West 6.4 km/h 9.7 km/h 94 % 0 mm 0 W/m2
21:01 8.7 °C 7.6 °C 1032.7 hPa WNW 3.2 km/h 4.8 km/h 93 % 0 mm 0 W/m2
21:03 8.7 °C 7.8 °C 1032.7 hPa WNW 1.6 km/h 4.8 km/h 94 % 0 mm 0 W/m2
21:04 8.7 °C 7.8 °C 1032.7 hPa WNW 1.6 km/h 4.8 km/h 94 % 0 mm 0 W/m2
21:09 8.7 °C 7.8 °C 1032.7 hPa WNW 1.6 km/h 3.2 km/h 94 % 0 mm 0 W/m2
21:14 8.6 °C 7.7 °C 1032.7 hPa WNW 4.8 km/h 8 km/h 94 % 0 mm 0 W/m2
21:16 8.6 °C 7.7 °C 1032.7 hPa WNW 3.2 km/h 8 km/h 94 % 0 mm 0 W/m2
21:21 8.6 °C 7.7 °C 1032.7 hPa Calm     94 % 0 mm 0 W/m2
21:25 8.6 °C 7.7 °C 1032.7 hPa Calm     94 % 0 mm 0 W/m2
21:30 8.4 °C 7.5 °C 1032.7 hPa WNW 1.6 km/h 3.2 km/h 94 % 0 mm 0 W/m2
21:35 8.4 °C 7.5 °C 1032.4 hPa Calm   3.2 km/h 94 % 0 mm 0 W/m2
21:40 8.4 °C 7.5 °C 1032.4 hPa Calm     94 % 0 mm 0 W/m2
21:41 8.4 °C 7.5 °C 1032.7 hPa Calm     94 % 0 mm 0 W/m2
21:46 8.3 °C 7.4 °C 1032.7 hPa Calm     94 % 0 mm 0 W/m2
21:51 8.3 °C 7.4 °C 1032.4 hPa Calm     94 % 0 mm 0 W/m2
21:56 8.3 °C 7.4 °C 1032.4 hPa Calm     94 % 0 mm 0 W/m2
21:57 8.4 °C 7.5 °C 1032.4 hPa Calm     94 % 0 mm 0 W/m2
22:01 8.4 °C 7.5 °C 1032.4 hPa Calm     94 % 0 mm 0 W/m2
22:04 8.4 °C 7.7 °C 1032.4 hPa Calm     95 % 0 mm 0 W/m2
22:09 8.5 °C 7.7 °C 1032.4 hPa Calm   1.6 km/h 95 % 0 mm 0 W/m2
22:13 8.5 °C 7.7 °C 1032.4 hPa WNW 1.6 km/h 6.4 km/h 95 % 0 mm 0 W/m2
22:18 8.5 °C 7.6 °C 1032.4 hPa Calm     94 % 0 mm 0 W/m2
22:19 8.4 °C 7.5 °C 1032.4 hPa Calm     94 % 0 mm 0 W/m2
22:21 8.4 °C 7.5 °C 1032.4 hPa Calm     94 % 0 mm 0 W/m2
22:26 8.2 °C 7.3 °C 1032.4 hPa Calm   3.2 km/h 94 % 0 mm 0 W/m2
22:27 8.2 °C 7.3 °C 1032.4 hPa Calm   3.2 km/h 94 % 0 mm 0 W/m2
22:32 8.1 °C 7.2 °C 1032.4 hPa Calm     94 % 0 mm 0 W/m2
22:37 8.1 °C 7.2 °C 1032.4 hPa Calm     94 % 0 mm 0 W/m2
22:38 8.1 °C 7.2 °C 1032.4 hPa Calm     94 % 0 mm 0 W/m2
22:42 8.1 °C 7.2 °C 1032.4 hPa Calm     94 % 0 mm 0 W/m2
22:44 8.1 °C 7.2 °C 1032.4 hPa Calm     94 % 0 mm 0 W/m2
22:49 8.1 °C 7.2 °C 1032.4 hPa Calm     94 % 0 mm 0 W/m2
22:51 8.1 °C 7.2 °C 1032.4 hPa Calm     94 % 0 mm 0 W/m2
22:54 8.1 °C 7.2 °C 1032.4 hPa Calm   3.2 km/h 94 % 0 mm 0 W/m2
22:58 8.1 °C 7.2 °C 1032.1 hPa West 6.4 km/h 9.7 km/h 94 % 0 mm 0 W/m2
23:03 8.2 °C 7.4 °C 1032.1 hPa West 1.6 km/h 4.8 km/h 95 % 0 mm 0 W/m2
23:04 8.2 °C 7.4 °C 1032.1 hPa Calm   1.6 km/h 95 % 0 mm 0 W/m2
23:10 8.1 °C 7.2 °C 1032.1 hPa West 1.6 km/h 4.8 km/h 94 % 0 mm 0 W/m2
23:11 8.1 °C 7.2 °C 1032.1 hPa West 1.6 km/h 4.8 km/h 94 % 0 mm 0 W/m2
23:16 8.1 °C 7.3 °C 1032.1 hPa West 1.6 km/h 6.4 km/h 95 % 0 mm 0 W/m2
23:18 8.1 °C 7.3 °C 1032.1 hPa West 1.6 km/h 6.4 km/h 95 % 0 mm 0 W/m2
23:24 8.2 °C 7.4 °C 1032.1 hPa West 4.8 km/h 9.7 km/h 95 % 0 mm 0 W/m2
23:26 8.3 °C 7.6 °C 1032.1 hPa West 4.8 km/h 8 km/h 95 % 0 mm 0 W/m2
23:31 8.4 °C 7.7 °C 1032.1 hPa West 1.6 km/h 4.8 km/h 95 % 0 mm 0 W/m2
23:33 8.4 °C 7.7 °C 1032.1 hPa Calm   1.6 km/h 95 % 0 mm 0 W/m2
23:34 8.4 °C 7.7 °C 1032.1 hPa Calm   1.6 km/h 95 % 0 mm 0 W/m2
23:39 8.4 °C 7.7 °C 1032.1 hPa West 3.2 km/h 8 km/h 95 % 0 mm 0 W/m2
23:40 8.5 °C 7.7 °C 1032.1 hPa WNW 4.8 km/h 8 km/h 95 % 0 mm 0 W/m2
23:45 8.6 °C 7.8 °C 1032.1 hPa WSW 3.2 km/h 6.4 km/h 95 % 0 mm 0 W/m2
23:46 8.6 °C 7.8 °C 1032.1 hPa WSW 1.6 km/h 6.4 km/h 95 % 0 mm 0 W/m2
23:51 8.7 °C 7.9 °C 1032.1 hPa WSW 4.8 km/h 8 km/h 95 % 0 mm 0 W/m2
23:53 8.7 °C 7.9 °C 1032.1 hPa WSW 4.8 km/h 8 km/h 95 % 0 mm 0 W/m2
23:58 8.7 °C 7.9 °C 1032.1 hPa WSW 6.4 km/h 12.9 km/h 95 % 0 mm 0 W/m2
Delerius-Weather
Compliments of Weather Underground - 3 mb

Data updates at regular intervals.